createdAt,value
2019-03-22T00:00:39.921Z,71.97
2019-03-22T00:03:09.451Z,71.50
2019-03-22T00:05:39.005Z,71.47
2019-03-22T00:08:08.460Z,67.37
2019-03-22T00:10:37.973Z,73.37
2019-03-22T00:13:07.409Z,68.27
2019-03-22T00:15:36.970Z,67.97
2019-03-22T00:18:06.530Z,65.73
2019-03-22T00:20:36.050Z,63.57
2019-03-22T00:23:05.691Z,63.80
2019-03-22T00:25:35.144Z,63.37
2019-03-22T00:28:04.720Z,62.57
2019-03-22T00:30:34.351Z,65.17
2019-03-22T00:33:03.835Z,65.80
2019-03-22T00:35:33.274Z,67.60
2019-03-22T00:38:02.711Z,64.03
2019-03-22T00:40:32.245Z,69.33
2019-03-22T00:43:01.840Z,62.13
2019-03-22T00:45:31.298Z,56.73
2019-03-22T00:48:00.794Z,64.43
2019-03-22T00:50:30.269Z,63.20
2019-03-22T00:52:59.837Z,63.53
2019-03-22T00:55:29.316Z,64.50
2019-03-22T00:57:58.793Z,61.53
2019-03-22T01:00:28.344Z,64.87
2019-03-22T01:05:26.409Z,65.37
2019-03-22T01:07:55.880Z,64.80
2019-03-22T01:10:25.354Z,58.87
2019-03-22T01:12:54.822Z,67.67
2019-03-22T01:15:24.275Z,64.60
2019-03-22T01:17:53.744Z,65.17
2019-03-22T01:20:23.258Z,64.03
2019-03-22T01:22:52.891Z,69.43
2019-03-22T01:25:22.487Z,64.90
2019-03-22T01:27:53.745Z,65.97
2019-03-22T01:30:23.180Z,56.93
2019-03-22T01:32:52.650Z,66.03
2019-03-22T01:35:22.144Z,67.43
2019-03-22T01:37:51.730Z,62.50
2019-03-22T01:40:21.283Z,63.03
2019-03-22T01:42:50.806Z,71.03
2019-03-22T01:45:20.365Z,70.17
2019-03-22T01:47:49.877Z,67.27
2019-03-22T01:50:19.828Z,64.80
2019-03-22T01:52:49.400Z,62.97
2019-03-22T01:55:18.867Z,69.23
2019-03-22T01:57:53.525Z,67.87
2019-03-22T02:00:20.116Z,68.83
2019-03-22T02:02:49.700Z,59.83
2019-03-22T02:05:19.577Z,61.53
2019-03-22T02:07:49.009Z,68.13
2019-03-22T02:10:18.709Z,63.93
2019-03-22T02:12:48.206Z,59.37
2019-03-22T02:15:18.156Z,65.70
2019-03-22T02:17:47.705Z,55.93
2019-03-22T02:20:19.313Z,55.73
2019-03-22T02:22:48.760Z,60.77
2019-03-22T02:25:18.231Z,64.37
2019-03-22T02:27:47.892Z,60.90
2019-03-22T02:30:18.675Z,68.47
2019-03-22T02:32:48.117Z,65.87
2019-03-22T02:35:28.167Z,63.93
2019-03-22T02:37:48.894Z,62.87
2019-03-22T02:40:18.420Z,62.40
2019-03-22T02:42:47.876Z,67.63
2019-03-22T02:45:17.738Z,63.43
2019-03-22T02:47:47.213Z,67.67
2019-03-22T02:50:19.823Z,63.13
2019-03-22T02:52:47.942Z,63.47
2019-03-22T02:55:17.494Z,60.10
2019-03-22T02:57:46.951Z,65.80
2019-03-22T03:00:18.736Z,60.93
2019-03-22T03:02:48.360Z,61.10
2019-03-22T03:05:17.874Z,66.63
2019-03-22T03:07:47.464Z,64.57
2019-03-22T03:10:17.697Z,70.07
2019-03-22T03:12:47.509Z,67.23
2019-03-22T03:15:20.048Z,66.67
2019-03-22T03:17:49.533Z,70.67
2019-03-22T03:20:20.126Z,73.30
2019-03-22T03:22:49.356Z,74.13
2019-03-22T03:25:19.146Z,82.97
2019-03-22T03:27:48.725Z,83.63
2019-03-22T03:30:22.632Z,123.83
2019-03-22T03:32:52.075Z,108.47
2019-03-22T03:35:21.474Z,122.00
2019-03-22T03:37:50.875Z,90.07
2019-03-22T03:40:20.520Z,84.47
2019-03-22T03:42:50.254Z,94.67
2019-03-22T03:45:38.474Z,95.73
2019-03-22T03:48:11.368Z,140.60
2019-03-22T03:50:40.908Z,144.10
2019-03-22T03:53:10.381Z,134.83
2019-03-22T03:55:39.911Z,90.93
2019-03-22T03:58:09.334Z,124.30
2019-03-22T04:00:38.858Z,160.83
2019-03-22T04:03:08.388Z,206.23
2019-03-22T04:05:37.961Z,164.97
2019-03-22T04:08:07.447Z,160.87
2019-03-22T04:10:36.900Z,127.00
2019-03-22T04:13:06.423Z,218.30
2019-03-22T04:15:36.036Z,141.77
2019-03-22T04:18:05.765Z,115.13
2019-03-22T04:20:35.240Z,227.70
2019-03-22T04:23:04.714Z,118.63
2019-03-22T04:25:34.200Z,170.47
2019-03-22T04:28:03.724Z,224.13
2019-03-22T04:30:33.192Z,218.17
2019-03-22T04:33:06.244Z,155.57
2019-03-22T04:35:33.862Z,222.60
2019-03-22T04:38:03.320Z,197.23
2019-03-22T04:40:32.851Z,226.57
2019-03-22T04:43:02.446Z,192.60
2019-03-22T04:45:33.687Z,208.17
2019-03-22T04:48:28.180Z,150.30
2019-03-22T04:51:00.594Z,185.00
2019-03-22T04:53:34.715Z,159.73
2019-03-22T04:56:08.617Z,195.37
2019-03-22T04:58:42.630Z,202.63
2019-03-22T05:01:14.718Z,216.77
2019-03-22T05:03:45.610Z,159.50
2019-03-22T05:06:17.849Z,201.13
2019-03-22T05:08:49.858Z,170.90
2019-03-22T05:11:21.626Z,149.30
2019-03-22T05:13:55.768Z,159.77
2019-03-22T05:16:25.630Z,161.80
2019-03-22T05:18:57.200Z,217.83
2019-03-22T05:21:28.713Z,158.87
2019-03-22T05:24:02.775Z,160.73
2019-03-22T05:26:36.946Z,174.40
2019-03-22T05:29:09.044Z,192.50
2019-03-22T05:32:02.947Z,118.37
2019-03-22T05:34:32.445Z,86.67
2019-03-22T05:37:01.948Z,116.03
2019-03-22T05:39:31.400Z,189.73
2019-03-22T05:42:00.888Z,171.17
2019-03-22T05:44:30.353Z,113.23
2019-03-22T05:46:59.904Z,118.97
2019-03-22T05:49:29.419Z,137.80
2019-03-22T05:51:58.918Z,153.83
2019-03-22T05:54:28.353Z,143.80
2019-03-22T05:56:57.941Z,134.27
2019-03-22T05:59:27.405Z,117.93
2019-03-22T06:01:56.986Z,88.37
2019-03-22T06:04:26.546Z,82.57
2019-03-22T06:06:55.968Z,86.63
2019-03-22T06:09:25.418Z,143.40
2019-03-22T06:11:54.941Z,100.20
2019-03-22T06:14:24.354Z,163.97
2019-03-22T06:16:53.787Z,150.03
2019-03-22T06:19:23.315Z,88.60
2019-03-22T06:21:52.793Z,110.60
2019-03-22T06:24:22.500Z,128.17
2019-03-22T06:26:52.104Z,75.10
2019-03-22T06:29:21.716Z,120.97
2019-03-22T06:31:51.192Z,98.90
2019-03-22T06:34:20.642Z,83.90
2019-03-22T06:36:50.137Z,108.80
2019-03-22T06:39:19.600Z,121.87
2019-03-22T06:41:49.034Z,123.07
2019-03-22T06:44:18.527Z,99.87
2019-03-22T06:46:48.005Z,79.33
2019-03-22T06:49:17.459Z,99.53
2019-03-22T06:51:47.001Z,95.93
2019-03-22T06:54:16.478Z,118.83
2019-03-22T06:56:45.960Z,84.17
2019-03-22T06:59:15.445Z,81.33
2019-03-22T07:01:44.904Z,61.77
2019-03-22T07:04:14.449Z,84.80
2019-03-22T07:06:43.927Z,61.37
2019-03-22T07:09:13.457Z,92.57
2019-03-22T07:11:42.995Z,81.43
2019-03-22T07:14:12.307Z,93.53
2019-03-22T07:16:41.870Z,56.63
2019-03-22T07:19:11.386Z,81.10
2019-03-22T07:21:41.005Z,69.40
2019-03-22T07:24:10.510Z,99.27
2019-03-22T07:26:40.020Z,60.33
2019-03-22T07:29:09.503Z,52.87
2019-03-22T07:31:38.957Z,54.77
2019-03-22T07:34:08.532Z,57.07
2019-03-22T07:36:38.028Z,51.70
2019-03-22T07:39:09.531Z,51.60
2019-03-22T07:41:39.006Z,52.70
2019-03-22T07:44:08.523Z,50.90
2019-03-22T07:46:38.050Z,53.10
2019-03-22T07:49:07.512Z,49.60
2019-03-22T07:51:36.967Z,48.67
2019-03-22T07:54:06.588Z,46.37
2019-03-22T07:56:36.063Z,45.00
2019-03-22T07:59:05.613Z,45.60
2019-03-22T08:01:35.107Z,46.37
2019-03-22T08:04:04.760Z,44.47
2019-03-22T08:06:34.222Z,44.27
2019-03-22T08:09:06.906Z,42.53
2019-03-22T08:11:36.698Z,42.90
2019-03-22T08:14:06.261Z,42.47
2019-03-22T08:16:35.795Z,45.03
2019-03-22T08:19:05.190Z,42.87
2019-03-22T08:21:34.674Z,39.23
2019-03-22T08:24:04.288Z,38.53
2019-03-22T08:26:33.901Z,38.17
2019-03-22T08:29:03.382Z,39.70
2019-03-22T08:31:32.872Z,38.97
2019-03-22T08:34:02.489Z,40.77
2019-03-22T08:36:32.000Z,38.23
2019-03-22T08:39:01.558Z,35.70
2019-03-22T08:41:31.085Z,36.23
2019-03-22T08:44:02.809Z,36.30
2019-03-22T08:46:31.959Z,37.37
2019-03-22T08:49:01.500Z,37.53
2019-03-22T08:51:31.146Z,34.13
2019-03-22T08:54:00.675Z,35.73
2019-03-22T08:56:30.244Z,35.53
2019-03-22T08:58:59.744Z,35.27
2019-03-22T09:01:29.501Z,34.23
2019-03-22T09:03:59.021Z,34.43
2019-03-22T09:06:31.477Z,35.00
2019-03-22T09:09:01.060Z,31.50
2019-03-22T09:11:30.632Z,33.77
2019-03-22T09:14:00.089Z,31.10
2019-03-22T09:16:30.803Z,31.20
2019-03-22T09:19:00.419Z,29.03
2019-03-22T09:21:29.904Z,24.30
2019-03-22T09:23:59.396Z,26.50
2019-03-22T09:26:28.944Z,28.40
2019-03-22T09:28:58.381Z,27.20
2019-03-22T09:31:27.890Z,24.10
2019-03-22T09:33:57.406Z,25.97
2019-03-22T09:36:26.989Z,24.40
2019-03-22T09:38:56.461Z,27.97
2019-03-22T09:41:25.945Z,23.20
2019-03-22T09:43:55.412Z,23.83
2019-03-22T09:46:24.886Z,22.90
2019-03-22T09:48:54.353Z,24.07
2019-03-22T09:51:23.794Z,23.83
2019-03-22T09:53:53.278Z,24.33
2019-03-22T09:56:22.738Z,22.37
2019-03-22T09:58:52.214Z,22.03
2019-03-22T10:01:23.888Z,23.73
2019-03-22T10:03:52.881Z,21.00
2019-03-22T10:06:22.443Z,20.90
2019-03-22T10:08:51.958Z,22.53
2019-03-22T10:11:21.414Z,21.50
2019-03-22T10:13:51.021Z,19.93
2019-03-22T10:16:20.481Z,20.87
2019-03-22T10:18:49.969Z,20.20
2019-03-22T10:21:22.603Z,20.73
2019-03-22T10:23:50.664Z,21.37
2019-03-22T10:26:20.217Z,20.17
2019-03-22T10:28:49.831Z,19.57
2019-03-22T10:31:19.304Z,22.13
2019-03-22T10:33:48.798Z,19.73
2019-03-22T10:36:19.825Z,18.60
2019-03-22T10:38:50.533Z,18.50
2019-03-22T10:41:20.180Z,17.30
2019-03-22T10:43:49.658Z,15.83
2019-03-22T10:46:19.232Z,16.07
2019-03-22T10:48:48.723Z,16.07
2019-03-22T10:51:21.344Z,15.60
2019-03-22T10:53:49.350Z,16.13
2019-03-22T10:56:18.802Z,13.43
2019-03-22T10:58:48.236Z,12.63
2019-03-22T11:01:17.711Z,13.13
2019-03-22T11:03:47.249Z,11.93
2019-03-22T11:06:25.738Z,11.53
2019-03-22T11:08:48.077Z,11.90
2019-03-22T11:11:17.562Z,13.63
2019-03-22T11:13:47.025Z,11.70
2019-03-22T11:16:16.568Z,10.83
2019-03-22T11:18:46.109Z,10.73
2019-03-22T11:21:15.538Z,11.23
2019-03-22T11:23:45.107Z,8.33
2019-03-22T11:26:14.871Z,8.40
2019-03-22T11:28:44.316Z,9.50
2019-03-22T11:31:13.842Z,9.70
2019-03-22T11:33:43.342Z,9.97
2019-03-22T11:36:12.942Z,8.80
2019-03-22T11:38:42.408Z,7.90
2019-03-22T11:41:11.943Z,9.97
2019-03-22T11:43:41.449Z,9.63
2019-03-22T11:46:10.997Z,9.47
2019-03-22T11:48:40.608Z,10.83
2019-03-22T11:51:10.153Z,8.93
2019-03-22T11:53:39.707Z,8.93
2019-03-22T11:56:09.535Z,8.83
2019-03-22T11:58:40.183Z,9.27
2019-03-22T12:01:19.109Z,8.20
2019-03-22T12:03:41.447Z,8.20
2019-03-22T12:06:11.148Z,7.93
2019-03-22T12:08:40.654Z,8.33
2019-03-22T12:11:10.217Z,9.90
2019-03-22T12:13:39.722Z,7.40
2019-03-22T12:16:09.185Z,10.30
2019-03-22T12:18:41.811Z,7.83
2019-03-22T12:21:11.456Z,9.57
2019-03-22T12:23:40.906Z,8.73
2019-03-22T12:26:10.346Z,10.37
2019-03-22T12:28:39.811Z,10.47
2019-03-22T12:31:09.311Z,9.93
2019-03-22T12:33:38.757Z,10.43
2019-03-22T12:36:08.325Z,9.67
2019-03-22T12:38:37.794Z,10.60
2019-03-22T12:41:07.250Z,10.43
2019-03-22T12:43:36.737Z,9.07
2019-03-22T12:46:06.324Z,10.63
2019-03-22T12:48:35.766Z,10.07
2019-03-22T12:51:08.324Z,11.67
2019-03-22T12:53:37.861Z,9.27
2019-03-22T12:56:07.437Z,11.37
2019-03-22T12:58:37.099Z,11.17
2019-03-22T13:01:06.689Z,8.50
2019-03-22T13:03:36.197Z,7.93
2019-03-22T13:06:06.034Z,8.23
2019-03-22T13:08:38.523Z,8.70
2019-03-22T13:11:08.066Z,8.47
2019-03-22T13:13:37.522Z,7.90
2019-03-22T13:16:06.953Z,7.60
2019-03-22T13:18:36.446Z,8.83
2019-03-22T13:21:05.955Z,9.67
2019-03-22T13:23:35.411Z,7.93
2019-03-22T13:26:05.031Z,8.23
2019-03-22T13:28:34.521Z,9.23
2019-03-22T13:31:03.941Z,9.93
2019-03-22T13:33:33.373Z,9.27
2019-03-22T13:36:02.922Z,8.70
2019-03-22T13:38:32.335Z,7.47
2019-03-22T13:41:01.949Z,9.47
2019-03-22T13:43:31.386Z,7.60
2019-03-22T13:46:00.940Z,8.17
2019-03-22T13:48:30.395Z,8.93
2019-03-22T13:50:59.852Z,7.57
2019-03-22T13:53:29.328Z,8.60
2019-03-22T13:55:58.816Z,7.77
2019-03-22T13:58:28.321Z,7.80
2019-03-22T14:00:57.805Z,9.93
2019-03-22T14:03:27.272Z,7.60
2019-03-22T14:05:56.811Z,7.73
2019-03-22T14:08:27.082Z,9.10
2019-03-22T14:10:56.675Z,9.37
2019-03-22T14:13:26.124Z,8.90
2019-03-22T14:15:55.600Z,9.97
2019-03-22T14:18:25.065Z,11.00
2019-03-22T14:20:54.675Z,10.57
2019-03-22T14:23:24.108Z,10.90
2019-03-22T14:25:53.604Z,9.50
2019-03-22T14:28:23.090Z,11.83
2019-03-22T14:30:52.520Z,11.10
2019-03-22T14:33:22.009Z,10.30
2019-03-22T14:35:51.625Z,10.23
2019-03-22T14:38:21.119Z,10.70
2019-03-22T14:40:50.556Z,10.30
2019-03-22T14:43:20.040Z,10.33
2019-03-22T14:45:49.512Z,8.73
2019-03-22T14:48:18.966Z,9.40
2019-03-22T14:50:48.448Z,10.47
2019-03-22T14:53:21.047Z,9.00
2019-03-22T14:55:50.503Z,11.47
2019-03-22T14:58:19.781Z,10.67
2019-03-22T15:00:49.225Z,9.63
2019-03-22T15:03:25.332Z,10.73
2019-03-22T15:05:56.292Z,10.30
2019-03-22T15:08:25.931Z,9.00
2019-03-22T15:10:55.986Z,8.40
2019-03-22T15:13:29.853Z,11.97
2019-03-22T15:16:01.066Z,9.70
2019-03-22T15:18:32.176Z,9.17
2019-03-22T15:21:06.193Z,8.83
2019-03-22T15:23:52.228Z,9.43
2019-03-22T15:26:23.436Z,9.67
2019-03-22T15:29:12.643Z,8.90
2019-03-22T15:31:43.787Z,7.30
2019-03-22T15:34:23.576Z,7.40
2019-03-22T15:37:00.385Z,7.53
2019-03-22T15:39:47.554Z,7.60
2019-03-22T15:42:17.077Z,7.47
2019-03-22T15:44:46.509Z,7.37
2019-03-22T15:47:16.039Z,6.27
2019-03-22T15:49:45.547Z,7.53
2019-03-22T15:52:15.090Z,6.37
2019-03-22T15:54:44.602Z,6.77
2019-03-22T15:57:14.202Z,5.53
2019-03-22T15:59:43.703Z,6.07
2019-03-22T16:02:13.358Z,5.13
2019-03-22T16:04:42.928Z,4.20
2019-03-22T16:07:12.614Z,6.93
2019-03-22T16:09:42.134Z,6.70
2019-03-22T16:12:11.843Z,6.13
2019-03-22T16:14:41.303Z,5.33
2019-03-22T16:17:10.801Z,7.67
2019-03-22T16:19:40.279Z,5.33
2019-03-22T16:22:09.871Z,5.30
2019-03-22T16:24:39.411Z,6.87
2019-03-22T16:27:08.904Z,6.07
2019-03-22T16:29:38.568Z,5.53
2019-03-22T16:32:08.313Z,6.13
2019-03-22T16:34:37.802Z,7.37
2019-03-22T16:37:07.618Z,5.67
2019-03-22T16:39:37.183Z,5.50
2019-03-22T16:42:06.727Z,7.83
2019-03-22T16:44:36.191Z,7.33
2019-03-22T16:47:05.942Z,6.10
2019-03-22T16:49:35.402Z,5.73
2019-03-22T16:52:05.012Z,7.80
2019-03-22T16:54:34.510Z,5.87
2019-03-22T16:57:04.068Z,5.57
2019-03-22T16:59:33.647Z,5.57
2019-03-22T17:02:03.283Z,5.90
2019-03-22T17:04:32.922Z,5.63
2019-03-22T17:07:02.490Z,6.20
2019-03-22T17:09:32.047Z,5.63
2019-03-22T17:12:01.602Z,5.20
2019-03-22T17:14:34.045Z,5.63
2019-03-22T17:17:03.559Z,5.43
2019-03-22T17:19:33.134Z,6.87
2019-03-22T17:22:02.589Z,5.93
2019-03-22T17:24:32.148Z,4.63
2019-03-22T17:27:01.685Z,5.00
2019-03-22T17:29:31.326Z,6.00
2019-03-22T17:32:00.774Z,5.97
2019-03-22T17:34:30.250Z,4.70
2019-03-22T17:36:59.726Z,5.37
2019-03-22T17:39:29.221Z,6.70
2019-03-22T17:41:58.726Z,6.07
2019-03-22T17:44:28.315Z,6.80
2019-03-22T17:46:57.779Z,5.20
2019-03-22T17:49:27.267Z,5.63
2019-03-22T17:51:56.726Z,5.03
2019-03-22T17:54:26.188Z,6.23
2019-03-22T17:56:55.746Z,4.80
2019-03-22T17:59:25.345Z,5.20
2019-03-22T18:01:55.164Z,6.80
2019-03-22T18:04:24.659Z,6.13
2019-03-22T18:06:54.279Z,5.07
2019-03-22T18:09:23.878Z,6.63
2019-03-22T18:11:53.312Z,5.93
2019-03-22T18:14:22.833Z,6.27
2019-03-22T18:16:52.352Z,6.57
2019-03-22T18:19:21.836Z,5.43
2019-03-22T18:21:51.304Z,7.77
2019-03-22T18:24:20.854Z,7.17
2019-03-22T18:26:50.475Z,6.93
2019-03-22T18:29:19.968Z,6.93
2019-03-22T18:31:49.590Z,6.03
2019-03-22T18:34:19.216Z,8.83
2019-03-22T18:36:48.723Z,9.43
2019-03-22T18:39:19.814Z,6.60
2019-03-22T18:41:49.297Z,7.03
2019-03-22T18:44:18.816Z,5.90
2019-03-22T18:46:48.261Z,7.20
2019-03-22T18:49:17.987Z,5.23
2019-03-22T18:51:49.051Z,5.40
2019-03-22T18:54:18.592Z,5.07
2019-03-22T18:56:48.187Z,12.43
2019-03-22T18:59:17.795Z,20.23
2019-03-22T19:01:47.324Z,20.73
2019-03-22T19:04:16.914Z,19.30
2019-03-22T19:06:46.475Z,17.30
2019-03-22T19:09:16.004Z,10.43
2019-03-22T19:11:45.559Z,10.57
2019-03-22T19:14:15.071Z,9.57
2019-03-22T19:16:44.776Z,7.73
2019-03-22T19:19:14.344Z,10.37
2019-03-22T19:21:43.813Z,9.70
2019-03-22T19:24:13.390Z,9.53
2019-03-22T19:26:42.972Z,9.10
2019-03-22T19:29:12.682Z,8.50
2019-03-22T19:31:42.216Z,10.67
2019-03-22T19:34:11.723Z,10.97
2019-03-22T19:36:41.239Z,9.60
2019-03-22T19:39:10.777Z,11.23
2019-03-22T19:41:40.255Z,10.30
2019-03-22T19:44:09.541Z,8.83
2019-03-22T19:46:39.135Z,11.30
2019-03-22T19:49:08.621Z,10.77
2019-03-22T19:51:38.245Z,9.53
2019-03-22T19:54:07.711Z,10.33
2019-03-22T19:56:37.240Z,7.80
2019-03-22T19:59:06.688Z,11.30
2019-03-22T20:01:36.165Z,9.03
2019-03-22T20:04:05.956Z,10.37
2019-03-22T20:06:35.404Z,6.87
2019-03-22T20:09:07.842Z,9.93
2019-03-22T20:11:37.516Z,9.67
2019-03-22T20:14:07.155Z,9.13
2019-03-22T20:16:36.618Z,9.50
2019-03-22T20:19:06.241Z,9.67
2019-03-22T20:21:35.714Z,8.23
2019-03-22T20:24:05.408Z,8.30
2019-03-22T20:26:34.887Z,7.93
2019-03-22T20:29:04.507Z,10.83
2019-03-22T20:31:34.063Z,9.10
2019-03-22T20:34:03.669Z,11.00
2019-03-22T20:36:33.308Z,9.23
2019-03-22T20:39:03.676Z,9.43
2019-03-22T20:41:33.167Z,9.90
2019-03-22T20:44:02.733Z,12.60
2019-03-22T20:46:32.235Z,10.37
2019-03-22T20:49:01.700Z,10.23
2019-03-22T20:51:31.240Z,11.17
2019-03-22T20:54:00.820Z,16.40
2019-03-22T20:56:30.379Z,14.23
2019-03-22T20:58:59.863Z,13.40
2019-03-22T21:01:29.484Z,13.87
2019-03-22T21:03:59.003Z,13.77
2019-03-22T21:06:28.493Z,10.93
2019-03-22T21:08:57.963Z,11.87
2019-03-22T21:11:27.495Z,15.63
2019-03-22T21:13:56.973Z,12.63
2019-03-22T21:16:26.469Z,13.47
2019-03-22T21:18:56.077Z,17.17
2019-03-22T21:21:35.930Z,13.87
2019-03-22T21:23:56.853Z,16.50
2019-03-22T21:26:26.357Z,15.57
2019-03-22T21:28:55.851Z,21.03
2019-03-22T21:31:25.322Z,21.27
2019-03-22T21:33:54.907Z,23.77
2019-03-22T21:36:24.430Z,29.73
2019-03-22T21:38:53.919Z,29.97
2019-03-22T21:41:23.425Z,34.13
2019-03-22T21:43:52.916Z,34.27
2019-03-22T21:46:22.415Z,38.10
2019-03-22T21:48:51.910Z,39.57
2019-03-22T21:51:21.484Z,42.17
2019-03-22T21:53:51.030Z,44.97
2019-03-22T21:56:20.534Z,44.60
2019-03-22T21:58:50.040Z,42.27
2019-03-22T22:01:19.584Z,44.60
2019-03-22T22:03:49.078Z,43.97
2019-03-22T22:06:18.561Z,44.10
2019-03-22T22:08:48.044Z,45.67
2019-03-22T22:11:17.551Z,44.63
2019-03-22T22:13:47.039Z,44.00
2019-03-22T22:16:16.884Z,47.83
2019-03-22T22:18:46.356Z,45.47
2019-03-22T22:21:15.956Z,43.13
2019-03-22T22:23:45.484Z,39.60
2019-03-22T22:26:15.000Z,37.10
2019-03-22T22:28:44.302Z,39.37
2019-03-22T22:31:13.748Z,43.43
2019-03-22T22:33:43.262Z,39.70
2019-03-22T22:36:12.814Z,41.47
2019-03-22T22:38:42.298Z,41.63
2019-03-22T22:41:11.772Z,40.83
2019-03-22T22:43:41.225Z,42.70
2019-03-22T22:46:10.686Z,37.13
2019-03-22T22:48:40.183Z,39.10
2019-03-22T22:51:09.707Z,40.10
2019-03-22T22:53:39.202Z,35.80
2019-03-22T22:56:08.681Z,41.30
2019-03-22T22:58:38.152Z,45.07
2019-03-22T23:01:07.801Z,49.73
2019-03-22T23:03:37.285Z,49.53
2019-03-22T23:06:09.679Z,56.37
2019-03-22T23:08:38.063Z,52.23
2019-03-22T23:11:07.578Z,55.80
2019-03-22T23:13:37.035Z,51.17
2019-03-22T23:16:06.655Z,56.93
2019-03-22T23:18:36.118Z,62.90
2019-03-22T23:21:05.658Z,65.27
2019-03-22T23:23:35.179Z,66.77
2019-03-22T23:26:04.770Z,65.07
2019-03-22T23:28:34.311Z,74.20
2019-03-22T23:31:06.330Z,74.33
2019-03-22T23:33:35.851Z,78.63
2019-03-22T23:36:05.384Z,80.17
2019-03-22T23:38:34.907Z,84.27
2019-03-22T23:41:04.414Z,80.90
2019-03-22T23:43:33.870Z,79.07
2019-03-22T23:46:03.434Z,79.67
2019-03-22T23:48:32.902Z,79.10
2019-03-22T23:51:02.239Z,79.13
2019-03-22T23:53:31.800Z,80.30
2019-03-22T23:56:01.289Z,84.93
2019-03-22T23:58:30.749Z,86.90
